Terminal Aerodrome Forecast
Issued by NWS

Home | Current Version | Previous Version | Text Only | Print | Product List | Glossary On
Versions: 1 2 3 4 5 6 7 8 9 10 11 12 13 14 15 16 17 18 19 20 21 22
000
FTUS43 KBIS 262327
TAFJMS
TAF
KJMS 262327Z 2700/2724 30014G20KT P6SM FEW120
     FM270100 26010KT P6SM FEW150
     FM270900 33011KT P6SM SKC
     FM271300 34017G26KT P6SM FEW250=

USA.gov is the U.S. government's official web portal to all federal, state and local government web resources and services.